createdAt,value
2019-05-03T00:00:44.552Z,0.00
2019-05-03T00:01:44.562Z,0.00
2019-05-03T00:02:44.557Z,0.00
2019-05-03T00:03:44.509Z,0.00
2019-05-03T00:04:44.497Z,0.00
2019-05-03T00:05:44.489Z,0.00
2019-05-03T00:06:44.471Z,0.00
2019-05-03T00:07:44.486Z,0.00
2019-05-03T00:08:44.463Z,0.00
2019-05-03T00:09:44.449Z,0.00
2019-05-03T00:10:44.435Z,0.00
2019-05-03T00:11:44.425Z,0.00
2019-05-03T00:12:44.445Z,0.00
2019-05-03T00:13:44.399Z,0.00
2019-05-03T00:14:44.392Z,0.00
2019-05-03T00:15:44.400Z,0.00
2019-05-03T00:16:44.371Z,0.00
2019-05-03T00:17:44.373Z,0.00
2019-05-03T00:18:44.346Z,0.00
2019-05-03T00:19:44.331Z,0.00
2019-05-03T00:20:44.339Z,0.00
2019-05-03T00:21:44.330Z,0.00
2019-05-03T00:22:44.322Z,0.00
2019-05-03T00:23:44.300Z,0.00
2019-05-03T00:24:44.289Z,0.00
2019-05-03T00:25:44.268Z,0.00
2019-05-03T00:26:44.258Z,0.00
2019-05-03T00:27:44.267Z,0.00
2019-05-03T00:28:44.248Z,0.00
2019-05-03T00:29:44.261Z,0.00
2019-05-03T00:30:44.237Z,0.00
2019-05-03T00:31:44.208Z,0.00
2019-05-03T00:32:44.223Z,0.00
2019-05-03T00:33:44.213Z,0.00
2019-05-03T00:34:46.452Z,0.00
2019-05-03T00:35:44.175Z,0.00
2019-05-03T00:36:44.159Z,0.00
2019-05-03T00:37:44.177Z,0.00
2019-05-03T00:38:44.129Z,0.00
2019-05-03T00:39:44.121Z,0.00
2019-05-03T00:40:44.122Z,0.00
2019-05-03T00:41:44.106Z,0.00
2019-05-03T00:42:44.128Z,0.00
2019-05-03T00:43:44.081Z,0.00
2019-05-03T00:44:44.068Z,0.00
2019-05-03T00:45:44.063Z,0.00
2019-05-03T00:46:44.055Z,0.00
2019-05-03T00:47:44.075Z,0.00
2019-05-03T00:48:44.037Z,0.00
2019-05-03T00:49:44.016Z,0.00
2019-05-03T00:50:44.006Z,0.00
2019-05-03T00:51:44.002Z,0.00
2019-05-03T00:52:44.010Z,0.00
2019-05-03T00:53:43.988Z,0.00
2019-05-03T00:54:43.971Z,0.00
2019-05-03T00:55:43.976Z,0.00
2019-05-03T00:56:44.526Z,0.00
2019-05-03T00:57:43.955Z,0.00
2019-05-03T00:58:43.921Z,0.00
2019-05-03T00:59:43.918Z,0.00
2019-05-03T01:00:43.910Z,0.00
2019-05-03T01:01:43.892Z,0.00
2019-05-03T01:02:43.902Z,0.00
2019-05-03T01:03:43.870Z,0.00
2019-05-03T01:04:43.860Z,0.00
2019-05-03T01:05:43.851Z,0.00
2019-05-03T01:06:43.833Z,0.00
2019-05-03T01:07:43.823Z,0.00
2019-05-03T01:08:43.827Z,0.00
2019-05-03T01:09:43.814Z,0.00
2019-05-03T01:10:43.791Z,0.00
2019-05-03T01:11:43.787Z,0.00
2019-05-03T01:12:43.771Z,0.00
2019-05-03T01:13:43.769Z,0.00
2019-05-03T01:14:43.751Z,0.00
2019-05-03T01:15:43.746Z,0.00
2019-05-03T01:16:43.720Z,0.00
2019-05-03T01:17:43.743Z,0.00
2019-05-03T01:18:43.776Z,0.00
2019-05-03T01:19:43.698Z,0.00
2019-05-03T01:20:43.682Z,0.00
2019-05-03T01:21:43.670Z,0.00
2019-05-03T01:22:43.662Z,0.00
2019-05-03T01:23:43.674Z,0.00
2019-05-03T01:24:43.649Z,0.00
2019-05-03T01:25:43.628Z,0.00
2019-05-03T01:26:43.626Z,0.00
2019-05-03T01:27:43.623Z,0.00
2019-05-03T01:28:43.610Z,0.00
2019-05-03T01:29:43.579Z,0.00
2019-05-03T01:30:43.564Z,0.00
2019-05-03T01:31:43.556Z,0.00
2019-05-03T01:32:44.217Z,0.00
2019-05-03T01:33:43.566Z,0.00
2019-05-03T01:34:43.527Z,0.00
2019-05-03T01:35:43.540Z,0.00
2019-05-03T01:36:43.528Z,0.00
2019-05-03T01:37:43.505Z,0.00
2019-05-03T01:38:43.507Z,0.00
2019-05-03T01:39:43.506Z,0.00
2019-05-03T01:40:43.458Z,0.00
2019-05-03T01:41:43.446Z,0.00
2019-05-03T01:42:43.440Z,0.00
2019-05-03T01:43:43.449Z,0.00
2019-05-03T01:44:43.460Z,0.00
2019-05-03T01:45:43.453Z,0.00
2019-05-03T01:46:43.400Z,0.00
2019-05-03T01:47:43.409Z,0.00
2019-05-03T01:48:43.392Z,0.00
2019-05-03T01:49:43.367Z,0.00
2019-05-03T01:50:43.375Z,0.00
2019-05-03T01:51:43.353Z,0.00
2019-05-03T01:52:43.331Z,0.00
2019-05-03T01:53:43.337Z,0.00
2019-05-03T01:54:43.312Z,0.00
2019-05-03T01:55:46.378Z,0.00
2019-05-03T01:56:55.481Z,0.00
2019-05-03T01:57:44.282Z,0.00
2019-05-03T01:58:43.287Z,0.00
2019-05-03T01:59:43.256Z,0.00
2019-05-03T02:00:43.249Z,0.00
2019-05-03T02:01:43.243Z,0.00
2019-05-03T02:02:43.232Z,0.00
2019-05-03T02:03:43.247Z,0.00
2019-05-03T02:04:43.211Z,0.00
2019-05-03T02:05:43.198Z,0.00
2019-05-03T02:06:43.186Z,0.00
2019-05-03T02:07:43.183Z,0.00
2019-05-03T02:08:43.169Z,0.00
2019-05-03T02:09:43.172Z,0.00
2019-05-03T02:10:43.660Z,0.00
2019-05-03T02:11:43.133Z,0.00
2019-05-03T02:12:43.121Z,0.00
2019-05-03T02:13:43.110Z,0.00
2019-05-03T02:14:43.107Z,0.00
2019-05-03T02:15:43.082Z,0.00
2019-05-03T02:16:43.075Z,0.00
2019-05-03T02:17:43.071Z,0.00
2019-05-03T02:18:43.060Z,0.00
2019-05-03T02:19:43.059Z,0.00
2019-05-03T02:20:43.029Z,0.00
2019-05-03T02:21:43.017Z,0.00
2019-05-03T02:22:43.007Z,0.00
2019-05-03T02:23:43.002Z,0.00
2019-05-03T02:24:43.007Z,0.00
2019-05-03T02:25:55.154Z,0.00
2019-05-03T02:26:43.968Z,0.00
2019-05-03T02:27:42.949Z,0.00
2019-05-03T02:28:42.946Z,0.00
2019-05-03T02:29:42.956Z,0.00
2019-05-03T02:30:44.047Z,0.00
2019-05-03T02:31:43.569Z,0.00
2019-05-03T02:32:43.974Z,0.00
2019-05-03T02:33:43.522Z,0.00
2019-05-03T02:34:43.938Z,0.00
2019-05-03T02:35:43.161Z,0.00
2019-05-03T02:36:43.025Z,0.00
2019-05-03T02:37:43.892Z,0.00
2019-05-03T02:38:43.217Z,0.00
2019-05-03T02:39:42.932Z,0.00
2019-05-03T02:40:43.192Z,0.00
2019-05-03T02:41:46.028Z,0.00
2019-05-03T02:42:46.365Z,0.00
2019-05-03T02:43:45.111Z,0.00
2019-05-03T02:44:42.788Z,0.00
2019-05-03T02:45:45.532Z,0.00
2019-05-03T02:46:45.272Z,0.00
2019-05-03T02:47:42.738Z,0.00
2019-05-03T02:48:45.547Z,0.00
2019-05-03T02:49:45.311Z,0.00
2019-05-03T02:50:45.139Z,0.00
2019-05-03T02:51:42.694Z,0.00
2019-05-03T02:52:42.696Z,0.00
2019-05-03T02:53:45.499Z,0.00
2019-05-03T02:54:42.688Z,0.00
2019-05-03T02:55:45.385Z,0.00
2019-05-03T02:56:42.642Z,0.00
2019-05-03T02:57:42.644Z,0.00
2019-05-03T02:58:42.612Z,0.00
2019-05-03T02:59:42.618Z,4.00
2019-05-03T03:00:45.347Z,4.00
2019-05-03T03:01:42.602Z,4.00
2019-05-03T03:02:45.419Z,0.00
2019-05-03T03:03:45.452Z,4.00
2019-05-03T03:04:42.565Z,4.00
2019-05-03T03:05:42.547Z,4.00
2019-05-03T03:06:42.530Z,4.00
2019-05-03T03:07:45.749Z,4.00
2019-05-03T03:08:45.327Z,8.00
2019-05-03T03:09:45.121Z,8.00
2019-05-03T03:10:45.344Z,8.00
2019-05-03T03:11:42.478Z,12.00
2019-05-03T03:12:42.470Z,16.00
2019-05-03T03:13:42.456Z,16.00
2019-05-03T03:14:42.467Z,20.00
2019-05-03T03:15:42.446Z,24.00
2019-05-03T03:16:45.293Z,28.00
2019-05-03T03:17:45.577Z,32.00
2019-05-03T03:18:45.363Z,40.00
2019-05-03T03:19:42.384Z,44.00
2019-05-03T03:20:44.905Z,52.00
2019-05-03T03:21:42.364Z,56.00
2019-05-03T03:22:45.295Z,64.00
2019-05-03T03:23:42.345Z,72.00
2019-05-03T03:24:42.323Z,80.00
2019-05-03T03:25:42.327Z,96.00
2019-05-03T03:26:43.594Z,112.00
2019-05-03T03:27:45.191Z,124.00
2019-05-03T03:28:42.287Z,140.00
2019-05-03T03:29:42.272Z,156.00
2019-05-03T03:30:42.279Z,172.00
2019-05-03T03:31:42.257Z,192.00
2019-05-03T03:32:42.244Z,208.00
2019-05-03T03:33:42.232Z,224.00
2019-05-03T03:34:54.318Z,244.00
2019-05-03T03:35:48.426Z,256.00
2019-05-03T03:36:58.047Z,280.00
2019-05-03T03:37:45.971Z,304.00
2019-05-03T03:38:42.178Z,320.00
2019-05-03T03:39:42.163Z,336.00
2019-05-03T03:40:42.173Z,368.00
2019-05-03T03:41:42.158Z,400.00
2019-05-03T03:42:42.147Z,428.00
2019-05-03T03:43:42.132Z,456.00
2019-05-03T03:44:42.125Z,484.00
2019-05-03T03:45:42.140Z,508.00
2019-05-03T03:46:42.119Z,536.00
2019-05-03T03:47:42.095Z,564.00
2019-05-03T03:48:42.085Z,592.00
2019-05-03T03:49:42.065Z,632.00
2019-05-03T03:50:42.058Z,668.00
2019-05-03T03:51:42.063Z,712.00
2019-05-03T03:52:42.031Z,752.00
2019-05-03T03:53:42.016Z,788.00
2019-05-03T03:54:42.011Z,820.00
2019-05-03T03:55:41.995Z,868.00
2019-05-03T03:56:55.982Z,896.00
2019-05-03T03:57:42.982Z,932.00
2019-05-03T03:58:41.971Z,976.00
2019-05-03T03:59:41.955Z,1024.00
2019-05-03T04:00:41.951Z,1072.00
2019-05-03T04:01:41.956Z,1124.00
2019-05-03T04:02:41.933Z,1176.00
2019-05-03T04:03:41.924Z,1228.00
2019-05-03T04:04:41.903Z,1280.00
2019-05-03T04:05:41.892Z,1332.00
2019-05-03T04:06:41.903Z,1384.00
2019-05-03T04:07:41.874Z,1436.00
2019-05-03T04:08:41.872Z,1492.00
2019-05-03T04:09:41.859Z,1560.00
2019-05-03T04:10:41.863Z,1636.00
2019-05-03T04:11:41.850Z,1720.00
2019-05-03T04:12:41.822Z,1812.00
2019-05-03T04:13:41.808Z,1920.00
2019-05-03T04:14:41.808Z,2020.00
2019-05-03T04:15:41.799Z,2124.00
2019-05-03T04:16:41.793Z,2220.00
2019-05-03T04:17:41.763Z,2316.00
2019-05-03T04:18:41.760Z,2404.00
2019-05-03T04:19:41.752Z,2484.00
2019-05-03T04:20:41.759Z,2552.00
2019-05-03T04:21:41.756Z,2624.00
2019-05-03T04:22:41.719Z,2696.00
2019-05-03T04:23:41.717Z,2760.00
2019-05-03T04:24:41.694Z,2848.00
2019-05-03T04:25:41.684Z,2968.00
2019-05-03T04:26:41.694Z,3120.00
2019-05-03T04:27:41.672Z,3308.00
2019-05-03T04:28:41.659Z,3516.00
2019-05-03T04:29:41.651Z,3676.00
2019-05-03T04:30:41.660Z,3804.00
2019-05-03T04:31:41.659Z,3904.00
2019-05-03T04:32:41.623Z,3972.00
2019-05-03T04:33:41.618Z,4052.00
2019-05-03T04:34:41.600Z,4132.00
2019-05-03T04:35:41.591Z,4240.00
2019-05-03T04:36:41.594Z,4340.00
2019-05-03T04:37:41.566Z,4324.00
2019-05-03T04:38:41.559Z,4288.00
2019-05-03T04:39:41.553Z,4276.00
2019-05-03T04:40:41.545Z,4308.00
2019-05-03T04:41:41.556Z,4364.00
2019-05-03T04:42:41.522Z,4404.00
2019-05-03T04:43:41.510Z,4424.00
2019-05-03T04:44:41.490Z,4464.00
2019-05-03T04:45:41.486Z,4532.00
2019-05-03T04:46:41.480Z,4660.00
2019-05-03T04:47:41.493Z,4880.00
2019-05-03T04:48:41.460Z,5240.00
2019-05-03T04:49:41.443Z,5644.00
2019-05-03T04:50:41.440Z,5804.00
2019-05-03T04:51:41.425Z,5884.00
2019-05-03T04:52:41.430Z,5848.00
2019-05-03T04:53:41.408Z,5924.00
2019-05-03T04:54:41.399Z,6000.00
2019-05-03T04:55:41.381Z,6116.00
2019-05-03T04:56:41.374Z,6312.00
2019-05-03T04:57:45.732Z,6412.00
2019-05-03T04:58:42.345Z,6432.00
2019-05-03T04:59:41.327Z,6204.00
2019-05-03T05:00:41.326Z,6064.00
2019-05-03T05:01:41.320Z,5988.00
2019-05-03T05:02:41.323Z,6036.00
2019-05-03T05:03:41.297Z,6180.00
2019-05-03T05:04:41.281Z,6320.00
2019-05-03T05:05:41.273Z,6432.00
2019-05-03T05:06:41.262Z,6544.00
2019-05-03T05:07:41.268Z,6616.00
2019-05-03T05:08:41.243Z,6656.00
2019-05-03T05:09:41.231Z,6692.00
2019-05-03T05:10:41.212Z,6684.00
2019-05-03T05:11:41.216Z,6604.00
2019-05-03T05:12:41.205Z,6528.00
2019-05-03T05:13:41.193Z,6456.00
2019-05-03T05:14:41.184Z,6332.00
2019-05-03T05:15:41.163Z,6192.00
2019-05-03T05:16:41.152Z,6104.00
2019-05-03T05:17:41.160Z,6044.00
2019-05-03T05:18:41.135Z,5960.00
2019-05-03T05:19:41.126Z,5980.00
2019-05-03T05:20:41.105Z,6032.00
2019-05-03T05:21:41.091Z,6128.00
2019-05-03T05:22:41.091Z,6408.00
2019-05-03T05:23:41.071Z,6756.00
2019-05-03T05:24:41.069Z,6752.00
2019-05-03T05:25:41.055Z,6940.00
2019-05-03T05:26:41.042Z,7196.00
2019-05-03T05:27:48.865Z,8888.00
2019-05-03T05:28:42.021Z,11748.00
2019-05-03T05:29:41.003Z,15904.00
2019-05-03T05:30:41.006Z,19328.00
2019-05-03T05:31:40.982Z,19648.00
2019-05-03T05:32:41.024Z,20288.00
2019-05-03T05:33:40.969Z,20480.00
2019-05-03T05:34:40.951Z,20192.00
2019-05-03T05:35:40.964Z,20128.00
2019-05-03T05:36:40.952Z,20640.00
2019-05-03T05:37:40.931Z,21376.00
2019-05-03T05:38:40.932Z,21600.00
2019-05-03T05:39:40.905Z,21760.00
2019-05-03T05:40:40.894Z,22304.00
2019-05-03T05:41:40.879Z,24288.00
2019-05-03T05:42:40.866Z,25376.00
2019-05-03T05:43:40.871Z,24864.00
2019-05-03T05:44:40.858Z,25184.00
2019-05-03T05:45:40.847Z,23040.00
2019-05-03T05:46:40.828Z,19904.00
2019-05-03T05:47:40.822Z,20864.00
2019-05-03T05:48:40.816Z,15256.00
2019-05-03T05:49:40.795Z,20800.00
2019-05-03T05:50:40.790Z,26816.00
2019-05-03T05:51:40.787Z,28416.00
2019-05-03T05:52:40.774Z,29568.00
2019-05-03T05:53:40.761Z,30272.00
2019-05-03T05:54:40.764Z,29600.00
2019-05-03T05:55:40.727Z,29952.00
2019-05-03T05:56:40.720Z,29824.00
2019-05-03T05:57:40.708Z,24544.00
2019-05-03T05:58:40.718Z,19968.00
2019-05-03T05:59:40.692Z,12692.00
2019-05-03T06:00:40.679Z,11104.00
2019-05-03T06:01:40.670Z,20512.00
2019-05-03T06:02:40.657Z,25248.00
2019-05-03T06:03:40.699Z,30208.00
2019-05-03T06:04:40.641Z,33472.00
2019-05-03T06:05:40.633Z,37664.00
2019-05-03T06:06:40.624Z,36960.00
2019-05-03T06:07:40.602Z,35680.00
2019-05-03T06:08:40.602Z,35360.00
2019-05-03T06:09:40.598Z,34496.00
2019-05-03T06:10:40.581Z,35136.00
2019-05-03T06:11:40.564Z,12772.00
2019-05-03T06:12:40.568Z,38400.00
2019-05-03T06:13:40.538Z,38240.00
2019-05-03T06:14:40.541Z,37888.00
2019-05-03T06:15:40.590Z,38016.00
2019-05-03T06:16:40.553Z,37120.00
2019-05-03T06:17:40.528Z,37568.00
2019-05-03T06:18:40.610Z,40608.00
2019-05-03T06:19:40.676Z,11532.00
2019-05-03T06:20:40.522Z,28384.00
2019-05-03T06:21:40.523Z,36640.00
2019-05-03T06:22:40.899Z,44352.00
2019-05-03T06:23:40.544Z,18656.00
2019-05-03T06:24:40.568Z,45696.00
2019-05-03T06:25:40.410Z,19040.00
2019-05-03T06:26:40.394Z,9940.00
2019-05-03T06:27:40.382Z,12232.00
2019-05-03T06:28:41.679Z,16408.00
2019-05-03T06:29:40.378Z,53376.00
2019-05-03T06:30:40.374Z,12132.00
2019-05-03T06:31:40.356Z,47488.00
2019-05-03T06:32:40.327Z,10168.00
2019-05-03T06:33:40.319Z,10748.00
2019-05-03T06:34:40.329Z,49600.00
2019-05-03T06:35:40.331Z,15680.00
2019-05-03T06:36:40.298Z,11180.00
2019-05-03T06:37:40.304Z,13620.00
2019-05-03T06:38:42.253Z,15648.00
2019-05-03T06:39:40.251Z,58592.00
2019-05-03T06:40:40.268Z,38720.00
2019-05-03T06:41:41.009Z,39232.00
2019-05-03T06:42:51.442Z,62368.00
2019-05-03T06:43:45.065Z,19136.00
2019-05-03T06:44:41.198Z,17308.00
2019-05-03T06:45:41.141Z,64992.00
2019-05-03T06:46:41.181Z,63680.00
2019-05-03T06:47:45.261Z,51776.00
2019-05-03T06:48:41.159Z,16552.00
2019-05-03T06:49:44.818Z,20160.00
2019-05-03T06:50:41.157Z,44032.00
2019-05-03T06:51:44.849Z,25312.00
2019-05-03T06:52:41.127Z,22176.00
2019-05-03T06:53:41.871Z,13136.00
2019-05-03T06:54:41.095Z,12260.00
2019-05-03T06:55:44.616Z,13988.00
2019-05-03T06:56:41.450Z,16300.00
2019-05-03T06:57:44.553Z,67072.00
2019-05-03T06:58:41.056Z,69792.00
2019-05-03T06:59:40.044Z,24960.00
2019-05-03T07:00:40.048Z,13764.00
2019-05-03T07:01:40.044Z,72640.00
2019-05-03T07:02:40.051Z,57824.00
2019-05-03T07:03:40.009Z,54560.00
2019-05-03T07:04:39.996Z,73120.00
2019-05-03T07:05:39.987Z,29184.00
2019-05-03T07:06:40.732Z,15516.00
2019-05-03T07:07:39.955Z,40032.00
2019-05-03T07:08:39.951Z,32384.00
2019-05-03T07:09:39.946Z,13292.00
2019-05-03T07:10:39.982Z,9940.00
2019-05-03T07:11:39.932Z,8248.00
2019-05-03T07:12:39.905Z,8392.00
2019-05-03T07:13:39.894Z,12744.00
2019-05-03T07:14:39.886Z,18240.00
2019-05-03T07:15:39.873Z,14320.00
2019-05-03T07:16:39.880Z,14720.00
2019-05-03T07:17:39.852Z,78592.00
2019-05-03T07:18:39.923Z,36288.00
2019-05-03T07:19:39.823Z,47584.00
2019-05-03T07:20:39.818Z,19904.00
2019-05-03T07:21:39.824Z,16356.00
2019-05-03T07:22:39.800Z,16072.00
2019-05-03T07:23:39.799Z,20288.00
2019-05-03T07:24:40.908Z,33952.00
2019-05-03T07:25:39.755Z,19136.00
2019-05-03T07:26:39.762Z,18592.00
2019-05-03T07:27:39.742Z,89568.00
2019-05-03T07:28:47.105Z,45664.00
2019-05-03T07:29:40.712Z,13604.00
2019-05-03T07:30:39.704Z,13816.00
2019-05-03T07:31:39.702Z,15788.00
2019-05-03T07:32:39.687Z,20672.00
2019-05-03T07:33:39.683Z,19776.00
2019-05-03T07:34:39.663Z,17464.00
2019-05-03T07:35:39.659Z,15284.00
2019-05-03T07:36:39.652Z,12920.00
2019-05-03T07:37:39.624Z,11748.00
2019-05-03T07:38:39.616Z,11492.00
2019-05-03T07:39:39.610Z,12392.00
2019-05-03T07:40:39.605Z,13756.00
2019-05-03T07:41:39.623Z,16648.00
2019-05-03T07:42:39.570Z,16156.00
2019-05-03T07:43:39.560Z,91328.00
2019-05-03T07:44:39.556Z,93920.00
2019-05-03T07:45:39.553Z,95360.00
2019-05-03T07:46:39.557Z,95744.00
2019-05-03T07:47:39.558Z,29152.00
2019-05-03T07:48:39.505Z,16880.00
2019-05-03T07:49:39.499Z,20480.00
2019-05-03T07:50:39.487Z,93024.00
2019-05-03T07:51:39.496Z,16924.00
2019-05-03T07:52:39.483Z,15896.00
2019-05-03T07:53:39.460Z,25472.00
2019-05-03T07:54:39.447Z,22592.00
2019-05-03T07:55:39.439Z,83424.00
2019-05-03T07:56:39.422Z,21568.00
2019-05-03T07:57:39.423Z,60608.00
2019-05-03T07:58:39.422Z,17692.00
2019-05-03T07:59:39.400Z,16936.00
2019-05-03T08:00:39.378Z,98432.00
2019-05-03T08:01:39.374Z,98432.00
2019-05-03T08:02:39.376Z,97536.00
2019-05-03T08:03:39.348Z,97472.00
2019-05-03T08:04:39.346Z,97184.00
2019-05-03T08:05:39.332Z,100512.00
2019-05-03T08:06:39.326Z,102240.00
2019-05-03T08:07:39.334Z,101440.00
2019-05-03T08:08:39.298Z,98368.00
2019-05-03T08:09:39.290Z,102240.00
2019-05-03T08:10:39.278Z,100064.00
2019-05-03T08:11:39.258Z,107968.00
2019-05-03T08:12:39.281Z,105120.00
2019-05-03T08:13:39.252Z,100992.00
2019-05-03T08:14:39.233Z,103264.00
2019-05-03T08:15:39.218Z,105760.00
2019-05-03T08:16:39.244Z,84480.00
2019-05-03T08:17:39.239Z,109056.00
2019-05-03T08:18:39.201Z,19936.00
2019-05-03T08:19:39.195Z,105920.00
2019-05-03T08:20:39.179Z,106368.00
2019-05-03T08:21:39.289Z,101408.00
2019-05-03T08:22:39.198Z,108960.00
2019-05-03T08:23:39.146Z,62304.00
2019-05-03T08:24:39.138Z,21728.00
2019-05-03T08:25:39.131Z,27520.00
2019-05-03T08:26:39.118Z,104736.00
2019-05-03T08:27:39.121Z,109024.00
2019-05-03T08:28:39.086Z,27968.00
2019-05-03T08:29:39.074Z,84064.00
2019-05-03T08:30:39.068Z,66976.00
2019-05-03T08:31:39.062Z,106784.00
2019-05-03T08:32:39.055Z,110208.00
2019-05-03T08:33:39.031Z,111616.00
2019-05-03T08:34:39.022Z,113056.00
2019-05-03T08:35:39.013Z,97408.00
2019-05-03T08:36:39.007Z,99744.00
2019-05-03T08:37:39.013Z,110720.00
2019-05-03T08:38:38.985Z,90656.00
2019-05-03T08:39:38.994Z,111136.00
2019-05-03T08:40:38.957Z,111936.00
2019-05-03T08:41:38.954Z,110144.00
2019-05-03T08:42:38.959Z,107712.00
2019-05-03T08:43:38.950Z,108096.00
2019-05-03T08:44:38.934Z,107808.00
2019-05-03T08:45:38.919Z,110912.00
2019-05-03T08:46:38.907Z,112352.00
2019-05-03T08:47:38.932Z,24544.00
2019-05-03T08:48:38.880Z,16924.00
2019-05-03T08:49:38.874Z,112608.00
2019-05-03T08:50:38.875Z,113824.00
2019-05-03T08:51:38.855Z,121536.00
2019-05-03T08:52:38.828Z,124320.00
2019-05-03T08:53:38.847Z,95264.00
2019-05-03T08:54:38.815Z,26080.00
2019-05-03T08:55:38.843Z,22144.00
2019-05-03T08:56:38.817Z,23968.00
2019-05-03T08:57:38.788Z,57760.00
2019-05-03T08:58:38.788Z,120128.00
2019-05-03T08:59:38.769Z,34336.00
2019-05-03T09:00:38.746Z,21408.00
2019-05-03T09:01:39.504Z,20576.00
2019-05-03T09:02:38.738Z,119072.00
2019-05-03T09:03:38.755Z,124704.00
2019-05-03T09:04:42.677Z,124128.00
2019-05-03T09:05:38.702Z,124000.00
2019-05-03T09:06:38.682Z,124320.00
2019-05-03T09:07:38.692Z,132480.00
2019-05-03T09:08:38.692Z,84640.00
2019-05-03T09:09:38.663Z,23392.00
2019-05-03T09:10:38.815Z,23424.00
2019-05-03T09:11:38.653Z,29984.00
2019-05-03T09:12:38.617Z,29952.00
2019-05-03T09:13:38.631Z,24480.00
2019-05-03T09:14:43.745Z,24000.00
2019-05-03T09:15:39.596Z,23296.00
2019-05-03T09:16:38.581Z,19392.00
2019-05-03T09:17:38.576Z,18720.00
2019-05-03T09:18:38.576Z,18208.00
2019-05-03T09:19:38.564Z,16512.00
2019-05-03T09:20:38.542Z,17124.00
2019-05-03T09:21:38.537Z,20448.00
2019-05-03T09:22:38.521Z,39008.00
2019-05-03T09:23:38.528Z,138528.00
2019-05-03T09:24:38.495Z,39744.00
2019-05-03T09:25:38.492Z,33376.00
2019-05-03T09:26:38.478Z,75872.00
2019-05-03T09:27:38.458Z,42496.00
2019-05-03T09:28:38.475Z,33632.00
2019-05-03T09:29:43.218Z,25440.00
2019-05-03T09:30:39.438Z,22048.00
2019-05-03T09:31:38.457Z,21472.00
2019-05-03T09:32:38.415Z,24928.00
2019-05-03T09:33:38.424Z,35520.00
2019-05-03T09:34:38.390Z,47392.00
2019-05-03T09:35:38.385Z,21472.00
2019-05-03T09:36:38.375Z,17824.00
2019-05-03T09:37:38.362Z,15416.00
2019-05-03T09:38:40.488Z,14588.00
2019-05-03T09:39:38.349Z,15476.00
2019-05-03T09:40:38.327Z,17424.00
2019-05-03T09:41:38.317Z,20928.00
2019-05-03T09:42:38.312Z,57120.00
2019-05-03T09:43:38.296Z,133504.00
2019-05-03T09:44:38.294Z,128928.00
2019-05-03T09:45:38.267Z,123232.00
2019-05-03T09:46:38.256Z,126848.00
2019-05-03T09:47:38.253Z,121568.00
2019-05-03T09:48:38.262Z,26432.00
2019-05-03T09:49:38.250Z,120352.00
2019-05-03T09:50:38.215Z,124160.00
2019-05-03T09:51:38.204Z,62880.00
2019-05-03T09:52:38.198Z,129056.00
2019-05-03T09:53:38.194Z,139840.00
2019-05-03T09:54:38.201Z,31360.00
2019-05-03T09:55:38.183Z,140928.00
2019-05-03T09:56:44.661Z,132640.00
2019-05-03T09:57:39.144Z,140256.00
2019-05-03T09:58:38.325Z,135456.00
2019-05-03T09:59:38.142Z,107648.00
2019-05-03T10:00:38.120Z,104608.00
2019-05-03T10:01:38.107Z,140448.00
2019-05-03T10:02:38.095Z,132128.00
2019-05-03T10:03:38.082Z,139424.00
2019-05-03T10:04:38.077Z,141248.00
2019-05-03T10:05:38.066Z,29760.00
2019-05-03T10:06:38.060Z,21504.00
2019-05-03T10:07:38.046Z,16960.00
2019-05-03T10:08:38.030Z,14368.00
2019-05-03T10:09:38.142Z,13232.00
2019-05-03T10:10:38.012Z,14028.00
2019-05-03T10:11:38.006Z,17032.00
2019-05-03T10:12:38.025Z,21824.00
2019-05-03T10:13:41.505Z,132416.00
2019-05-03T10:14:37.970Z,77984.00
2019-05-03T10:15:37.976Z,143008.00
2019-05-03T10:16:37.949Z,140352.00
2019-05-03T10:17:37.946Z,139072.00
2019-05-03T10:18:37.927Z,134272.00
2019-05-03T10:19:40.422Z,130016.00
2019-05-03T10:20:37.938Z,133280.00
2019-05-03T10:21:37.905Z,129600.00
2019-05-03T10:22:37.885Z,125984.00
2019-05-03T10:23:37.871Z,118592.00
2019-05-03T10:24:37.868Z,113408.00
2019-05-03T10:25:40.338Z,118272.00
2019-05-03T10:26:37.856Z,108032.00
2019-05-03T10:27:37.833Z,116160.00
2019-05-03T10:28:37.825Z,108928.00
2019-05-03T10:29:37.813Z,96032.00
2019-05-03T10:30:37.820Z,34688.00
2019-05-03T10:31:37.800Z,25856.00
2019-05-03T10:32:37.801Z,23008.00
2019-05-03T10:33:37.842Z,21088.00
2019-05-03T10:34:37.832Z,21344.00
2019-05-03T10:35:37.773Z,23488.00
2019-05-03T10:36:37.740Z,28576.00
2019-05-03T10:37:37.729Z,99680.00
2019-05-03T10:38:37.728Z,104512.00
2019-05-03T10:39:37.832Z,105760.00
2019-05-03T10:40:37.715Z,101568.00
2019-05-03T10:41:37.693Z,106304.00
2019-05-03T10:42:38.231Z,116736.00
2019-05-03T10:43:37.675Z,119008.00
2019-05-03T10:44:38.101Z,74016.00
2019-05-03T10:45:37.679Z,122720.00
2019-05-03T10:46:37.647Z,47488.00
2019-05-03T10:47:37.632Z,44544.00
2019-05-03T10:48:37.631Z,36704.00
2019-05-03T10:49:37.609Z,49376.00
2019-05-03T10:50:37.608Z,27424.00
2019-05-03T10:51:37.616Z,25280.00
2019-05-03T10:52:38.371Z,21632.00
2019-05-03T10:53:37.571Z,18848.00
2019-05-03T10:54:38.378Z,16020.00
2019-05-03T10:55:37.550Z,14548.00
2019-05-03T10:56:37.554Z,14024.00
2019-05-03T10:57:37.527Z,14880.00
2019-05-03T10:58:37.516Z,17344.00
2019-05-03T10:59:37.505Z,19040.00
2019-05-03T11:00:45.029Z,23040.00
2019-05-03T11:01:38.492Z,19008.00
2019-05-03T11:02:37.466Z,18624.00
2019-05-03T11:03:37.462Z,18464.00
2019-05-03T11:04:37.450Z,17096.00
2019-05-03T11:05:37.443Z,16988.00
2019-05-03T11:06:37.455Z,18208.00
2019-05-03T11:07:37.416Z,21728.00
2019-05-03T11:08:37.395Z,21408.00
2019-05-03T11:09:48.675Z,21056.00
2019-05-03T11:10:38.385Z,21216.00
2019-05-03T11:11:37.384Z,22976.00
2019-05-03T11:12:37.352Z,21440.00
2019-05-03T11:13:37.342Z,20800.00
2019-05-03T11:14:37.328Z,20256.00
2019-05-03T11:15:37.318Z,19040.00
2019-05-03T11:16:37.313Z,17408.00
2019-05-03T11:17:37.328Z,17536.00
2019-05-03T11:18:37.296Z,18656.00
2019-05-03T11:19:37.298Z,15580.00
2019-05-03T11:20:37.265Z,13420.00
2019-05-03T11:21:37.270Z,11796.00
2019-05-03T11:22:37.272Z,11224.00
2019-05-03T11:23:37.245Z,11704.00
2019-05-03T11:24:37.236Z,12468.00
2019-05-03T11:25:37.223Z,13660.00
2019-05-03T11:26:37.212Z,14812.00
2019-05-03T11:27:37.216Z,16508.00
2019-05-03T11:28:37.200Z,19648.00
2019-05-03T11:29:37.186Z,24544.00
2019-05-03T11:30:37.204Z,45184.00
2019-05-03T11:31:37.166Z,106208.00
2019-05-03T11:32:37.154Z,109248.00
2019-05-03T11:33:37.140Z,110624.00
2019-05-03T11:34:37.125Z,113728.00
2019-05-03T11:35:37.118Z,114016.00
2019-05-03T11:36:37.129Z,106592.00
2019-05-03T11:37:37.113Z,106848.00
2019-05-03T11:38:37.088Z,102944.00
2019-05-03T11:39:37.082Z,98432.00
2019-05-03T11:40:37.059Z,98240.00
2019-05-03T11:41:37.054Z,94400.00
2019-05-03T11:42:37.062Z,75808.00
2019-05-03T11:43:37.042Z,25504.00
2019-05-03T11:44:37.014Z,20832.00
2019-05-03T11:45:37.008Z,18592.00
2019-05-03T11:46:36.995Z,16956.00
2019-05-03T11:47:37.001Z,15580.00
2019-05-03T11:48:36.984Z,14252.00
2019-05-03T11:49:36.966Z,14284.00
2019-05-03T11:50:36.957Z,18912.00
2019-05-03T11:51:36.941Z,18528.00
2019-05-03T11:52:36.945Z,22656.00
2019-05-03T11:53:36.929Z,43584.00
2019-05-03T11:54:36.921Z,31776.00
2019-05-03T11:55:36.899Z,33536.00
2019-05-03T11:56:36.894Z,40480.00
2019-05-03T11:57:36.900Z,49184.00
2019-05-03T11:58:36.868Z,53120.00
2019-05-03T11:59:36.866Z,103968.00
2019-05-03T12:00:36.859Z,62048.00
2019-05-03T12:01:36.842Z,49728.00
2019-05-03T12:02:36.847Z,56288.00
2019-05-03T12:03:36.826Z,50112.00
2019-05-03T12:04:36.805Z,54496.00
2019-05-03T12:05:36.808Z,47392.00
2019-05-03T12:06:36.979Z,47584.00
2019-05-03T12:07:39.973Z,52928.00
2019-05-03T12:08:36.783Z,49184.00
2019-05-03T12:09:36.750Z,100480.00
2019-05-03T12:10:53.062Z,110368.00